sensor_id;sensor_type;location;lat;lon;timestamp;pressure;altitude;pressure_sealevel;temperature;humidity
46942;BME280;32676;52.630;4.896;2023-06-14T00:00:37;99018.31;;;18.62;63.17
46942;BME280;32676;52.630;4.896;2023-06-14T00:03:06;99019.31;;;18.61;63.22
46942;BME280;32676;52.630;4.896;2023-06-14T00:05:33;99024.63;;;18.61;63.47
46942;BME280;32676;52.630;4.896;2023-06-14T00:08:04;99011.63;;;18.58;63.34
46942;BME280;32676;52.630;4.896;2023-06-14T00:10:33;99019.59;;;18.58;63.43
46942;BME280;32676;52.630;4.896;2023-06-14T00:13:00;99015.25;;;18.57;63.63
46942;BME280;32676;52.630;4.896;2023-06-14T00:15:27;99010.25;;;18.54;63.62
46942;BME280;32676;52.630;4.896;2023-06-14T00:17:55;98986.19;;;18.46;63.47
46942;BME280;32676;52.630;4.896;2023-06-14T00:20:22;98946.19;;;18.37;63.75
46942;BME280;32676;52.630;4.896;2023-06-14T00:22:48;98909.13;;;18.26;63.96
46942;BME280;32676;52.630;4.896;2023-06-14T00:25:15;98870.13;;;18.17;64.12
46942;BME280;32676;52.630;4.896;2023-06-14T00:27:41;98856.44;;;18.12;64.42
46942;BME280;32676;52.630;4.896;2023-06-14T00:30:09;98834.09;;;18.05;64.49
46942;BME280;32676;52.630;4.896;2023-06-14T00:32:35;98831.72;;;18.01;65.08
46942;BME280;32676;52.630;4.896;2023-06-14T00:35:04;98820.41;;;17.99;64.90
46942;BME280;32676;52.630;4.896;2023-06-14T00:37:31;98819.56;;;17.99;64.55
46942;BME280;32676;52.630;4.896;2023-06-14T00:39:57;98805.03;;;17.93;64.88
46942;BME280;32676;52.630;4.896;2023-06-14T00:42:24;98766.91;;;17.84;64.73
46942;BME280;32676;52.630;4.896;2023-06-14T00:44:51;98743.56;;;17.78;64.89
46942;BME280;32676;52.630;4.896;2023-06-14T00:47:18;98729.03;;;17.73;64.69
46942;BME280;32676;52.630;4.896;2023-06-14T00:49:45;98734.34;;;17.73;64.10
46942;BME280;32676;52.630;4.896;2023-06-14T00:52:14;98738.69;;;17.74;63.29
46942;BME280;32676;52.630;4.896;2023-06-14T00:54:42;98750.00;;;17.76;62.73
46942;BME280;32676;52.630;4.896;2023-06-14T00:57:08;98760.31;;;17.79;62.05
46942;BME280;32676;52.630;4.896;2023-06-14T00:59:43;98799.63;;;17.85;61.50
46942;BME280;32676;52.630;4.896;2023-06-14T01:02:11;98817.91;;;17.88;60.86
46942;BME280;32676;52.630;4.896;2023-06-14T01:04:41;98822.94;;;17.91;60.60
46942;BME280;32676;52.630;4.896;2023-06-14T01:07:13;98843.94;;;17.94;60.36
46942;BME280;32676;52.630;4.896;2023-06-14T01:09:50;98849.25;;;17.94;60.26
46942;BME280;32676;52.630;4.896;2023-06-14T01:12:24;98841.41;;;17.93;60.04
46942;BME280;32676;52.630;4.896;2023-06-14T01:14:53;98850.34;;;17.92;59.70
46942;BME280;32676;52.630;4.896;2023-06-14T01:17:21;98820.91;;;17.85;60.06
46942;BME280;32676;52.630;4.896;2023-06-14T01:19:51;98801.16;;;17.78;59.88
46942;BME280;32676;52.630;4.896;2023-06-14T01:22:24;98788.03;;;17.76;60.04
46942;BME280;32676;52.630;4.896;2023-06-14T01:24:53;98785.50;;;17.75;59.85
46942;BME280;32676;52.630;4.896;2023-06-14T01:27:22;98784.81;;;17.73;59.67
46942;BME280;32676;52.630;4.896;2023-06-14T01:29:49;98783.00;;;17.73;59.57
46942;BME280;32676;52.630;4.896;2023-06-14T01:32:17;98774.78;;;17.67;59.18
46942;BME280;32676;52.630;4.896;2023-06-14T01:34:44;98742.81;;;17.58;59.78
46942;BME280;32676;52.630;4.896;2023-06-14T01:37:11;98709.84;;;17.51;60.12
46942;BME280;32676;52.630;4.896;2023-06-14T01:39:39;98682.19;;;17.44;60.49
46942;BME280;32676;52.630;4.896;2023-06-14T01:42:08;98663.22;;;17.39;61.17
46942;BME280;32676;52.630;4.896;2023-06-14T01:44:36;98636.56;;;17.31;61.49
46942;BME280;32676;52.630;4.896;2023-06-14T01:47:04;98618.56;;;17.24;61.57
46942;BME280;32676;52.630;4.896;2023-06-14T01:49:33;98590.97;;;17.17;61.94
46942;BME280;32676;52.630;4.896;2023-06-14T01:51:59;98574.66;;;17.12;62.26
46942;BME280;32676;52.630;4.896;2023-06-14T01:54:26;98569.47;;;17.11;62.53
46942;BME280;32676;52.630;4.896;2023-06-14T01:56:54;98535.72;;;17.03;63.10
46942;BME280;32676;52.630;4.896;2023-06-14T01:59:22;98504.06;;;16.92;63.22
46942;BME280;32676;52.630;4.896;2023-06-14T02:01:49;98480.78;;;16.85;63.79
46942;BME280;32676;52.630;4.896;2023-06-14T02:04:15;98466.97;;;16.82;63.17
46942;BME280;32676;52.630;4.896;2023-06-14T02:06:42;98493.09;;;16.86;63.05
46942;BME280;32676;52.630;4.896;2023-06-14T02:09:10;98513.03;;;16.91;62.27
46942;BME280;32676;52.630;4.896;2023-06-14T02:11:36;98520.97;;;16.91;61.93
46942;BME280;32676;52.630;4.896;2023-06-14T02:14:03;98519.28;;;16.89;62.11
46942;BME280;32676;52.630;4.896;2023-06-14T02:16:31;98502.84;;;16.86;61.98
46942;BME280;32676;52.630;4.896;2023-06-14T02:19:00;98496.97;;;16.82;62.09
46942;BME280;32676;52.630;4.896;2023-06-14T02:21:27;98472.72;;;16.77;62.20
46942;BME280;32676;52.630;4.896;2023-06-14T02:23:53;98468.53;;;16.75;62.20
46942;BME280;32676;52.630;4.896;2023-06-14T02:26:20;98433.13;;;16.66;62.12
46942;BME280;32676;52.630;4.896;2023-06-14T02:28:47;98428.41;;;16.60;62.77
46942;BME280;32676;52.630;4.896;2023-06-14T02:31:14;98427.13;;;16.64;62.72
46942;BME280;32676;52.630;4.896;2023-06-14T02:33:42;98444.88;;;16.63;63.00
46942;BME280;32676;52.630;4.896;2023-06-14T02:36:09;98443.03;;;16.64;63.11
46942;BME280;32676;52.630;4.896;2023-06-14T02:38:35;98443.03;;;16.64;63.56
46942;BME280;32676;52.630;4.896;2023-06-14T02:41:02;98439.00;;;16.60;63.13
46942;BME280;32676;52.630;4.896;2023-06-14T02:43:29;98432.88;;;16.59;63.65
46942;BME280;32676;52.630;4.896;2023-06-14T02:45:55;98417.41;;;16.55;63.45
46942;BME280;32676;52.630;4.896;2023-06-14T02:48:22;98419.22;;;16.54;63.28
46942;BME280;32676;52.630;4.896;2023-06-14T02:50:50;98410.75;;;16.50;63.35
46942;BME280;32676;52.630;4.896;2023-06-14T02:53:16;98404.75;;;16.48;63.02
46942;BME280;32676;52.630;4.896;2023-06-14T02:55:43;98400.56;;;16.46;63.54
46942;BME280;32676;52.630;4.896;2023-06-14T02:58:09;98399.75;;;16.45;63.46
46942;BME280;32676;52.630;4.896;2023-06-14T03:00:36;98396.41;;;16.43;63.25
46942;BME280;32676;52.630;4.896;2023-06-14T03:03:03;98371.47;;;16.36;63.34
46942;BME280;32676;52.630;4.896;2023-06-14T03:05:34;98340.56;;;16.27;63.65
46942;BME280;32676;52.630;4.896;2023-06-14T03:08:02;98333.72;;;16.24;63.37
46942;BME280;32676;52.630;4.896;2023-06-14T03:10:29;98324.25;;;16.22;63.61
46942;BME280;32676;52.630;4.896;2023-06-14T03:12:55;98307.00;;;16.18;63.84
46942;BME280;32676;52.630;4.896;2023-06-14T03:15:22;98325.41;;;16.19;63.44
46942;BME280;32676;52.630;4.896;2023-06-14T03:17:49;98304.63;;;16.15;63.60
46942;BME280;32676;52.630;4.896;2023-06-14T03:20:16;98297.97;;;16.10;63.96
46942;BME280;32676;52.630;4.896;2023-06-14T03:22:42;98291.97;;;16.08;63.90
46942;BME280;32676;52.630;4.896;2023-06-14T03:25:12;98300.59;;;16.10;63.81
46942;BME280;32676;52.630;4.896;2023-06-14T03:27:39;98286.97;;;16.05;64.10
46942;BME280;32676;52.630;4.896;2023-06-14T03:30:06;98276.66;;;16.02;63.67
46942;BME280;32676;52.630;4.896;2023-06-14T03:32:33;98287.25;;;16.02;63.67
46942;BME280;32676;52.630;4.896;2023-06-14T03:35:00;98300.91;;;16.07;63.69
46942;BME280;32676;52.630;4.896;2023-06-14T03:37:26;98326.09;;;16.11;63.74
46942;BME280;32676;52.630;4.896;2023-06-14T03:39:53;98321.81;;;16.10;64.20
46942;BME280;32676;52.630;4.896;2023-06-14T03:42:21;98341.03;;;16.12;64.05
46942;BME280;32676;52.630;4.896;2023-06-14T03:44:47;98337.41;;;16.14;63.89
46942;BME280;32676;52.630;4.896;2023-06-14T03:47:14;98350.50;;;16.15;64.14
46942;BME280;32676;52.630;4.896;2023-06-14T03:49:41;98352.31;;;16.15;64.45
46942;BME280;32676;52.630;4.896;2023-06-14T03:52:07;98372.53;;;16.16;64.39
46942;BME280;32676;52.630;4.896;2023-06-14T03:54:34;98391.47;;;16.21;64.74
46942;BME280;32676;52.630;4.896;2023-06-14T03:57:01;98419.06;;;16.28;64.73
46942;BME280;32676;52.630;4.896;2023-06-14T03:59:29;98453.63;;;16.36;64.89
46942;BME280;32676;52.630;4.896;2023-06-14T04:01:55;98480.53;;;16.41;64.29
46942;BME280;32676;52.630;4.896;2023-06-14T04:04:22;98507.47;;;16.46;64.50
46942;BME280;32676;52.630;4.896;2023-06-14T04:06:54;98519.44;;;16.50;64.43
46942;BME280;32676;52.630;4.896;2023-06-14T04:09:22;98542.03;;;16.55;64.25
46942;BME280;32676;52.630;4.896;2023-06-14T04:11:50;98587.22;;;16.63;63.98
46942;BME280;32676;52.630;4.896;2023-06-14T04:14:16;98620.97;;;16.70;63.69
46942;BME280;32676;52.630;4.896;2023-06-14T04:16:44;98644.41;;;16.75;63.32
46942;BME280;32676;52.630;4.896;2023-06-14T04:19:11;98658.22;;;16.79;63.21
46942;BME280;32676;52.630;4.896;2023-06-14T04:21:37;98706.69;;;16.91;63.17
46942;BME280;32676;52.630;4.896;2023-06-14T04:24:04;98760.59;;;17.01;62.88
46942;BME280;32676;52.630;4.896;2023-06-14T04:26:32;98823.66;;;17.17;62.49
46942;BME280;32676;52.630;4.896;2023-06-14T04:28:59;98890.44;;;17.32;62.56
46942;BME280;32676;52.630;4.896;2023-06-14T04:31:27;98965.06;;;17.48;62.46
46942;BME280;32676;52.630;4.896;2023-06-14T04:33:56;99033.56;;;17.64;62.10
46942;BME280;32676;52.630;4.896;2023-06-14T04:36:22;99090.63;;;17.79;61.80
46942;BME280;32676;52.630;4.896;2023-06-14T04:38:49;99157.53;;;17.94;61.54
46942;BME280;32676;52.630;4.896;2023-06-14T04:41:20;99216.56;;;18.08;61.47
46942;BME280;32676;52.630;4.896;2023-06-14T04:43:48;99275.66;;;18.21;61.10
46942;BME280;32676;52.630;4.896;2023-06-14T04:46:14;99315.13;;;18.26;61.19
46942;BME280;32676;52.630;4.896;2023-06-14T04:48:41;99369.44;;;18.42;61.04
46942;BME280;32676;52.630;4.896;2023-06-14T04:51:09;99412.19;;;18.51;60.93
46942;BME280;32676;52.630;4.896;2023-06-14T04:53:35;99442.59;;;18.58;61.10
46942;BME280;32676;52.630;4.896;2023-06-14T04:56:02;99504.25;;;18.73;60.92
46942;BME280;32676;52.630;4.896;2023-06-14T04:58:29;99577.34;;;18.90;60.80
46942;BME280;32676;52.630;4.896;2023-06-14T05:00:56;99627.84;;;19.01;60.52
46942;BME280;32676;52.630;4.896;2023-06-14T05:03:24;99647.91;;;19.05;60.25
46942;BME280;32676;52.630;4.896;2023-06-14T05:05:52;99680.44;;;19.09;60.44
46942;BME280;32676;52.630;4.896;2023-06-14T05:08:20;99731.53;;;19.24;59.91
46942;BME280;32676;52.630;4.896;2023-06-14T05:10:48;99742.88;;;19.26;59.82
46942;BME280;32676;52.630;4.896;2023-06-14T05:13:15;99761.28;;;19.29;59.64
46942;BME280;32676;52.630;4.896;2023-06-14T05:15:42;99788.19;;;19.35;59.77
46942;BME280;32676;52.630;4.896;2023-06-14T05:18:09;99834.53;;;19.44;59.72
46942;BME280;32676;52.630;4.896;2023-06-14T05:20:36;99864.03;;;19.52;59.73
46942;BME280;32676;52.630;4.896;2023-06-14T05:23:03;99917.97;;;19.66;59.53
46942;BME280;32676;52.630;4.896;2023-06-14T05:25:31;99983.50;;;19.80;59.31
46942;BME280;32676;52.630;4.896;2023-06-14T05:27:57;100029.88;;;19.88;58.76
46942;BME280;32676;52.630;4.896;2023-06-14T05:30:24;100059.38;;;19.97;58.29
46942;BME280;32676;52.630;4.896;2023-06-14T05:32:51;100081.31;;;20.00;57.77
46942;BME280;32676;52.630;4.896;2023-06-14T05:35:18;100098.03;;;20.02;57.71
46942;BME280;32676;52.630;4.896;2023-06-14T05:37:44;100138.13;;;20.12;57.37
46942;BME280;32676;52.630;4.896;2023-06-14T05:40:11;100183.44;;;20.23;57.24
46942;BME280;32676;52.630;4.896;2023-06-14T05:42:39;100207.91;;;20.28;56.88
46942;BME280;32676;52.630;4.896;2023-06-14T05:45:06;100246.19;;;20.39;56.62
46942;BME280;32676;52.630;4.896;2023-06-14T05:47:33;100281.22;;;20.45;56.47
46942;BME280;32676;52.630;4.896;2023-06-14T05:50:00;100325.00;;;20.54;56.48
46942;BME280;32676;52.630;4.896;2023-06-14T05:52:26;100361.66;;;20.63;56.37
46942;BME280;32676;52.630;4.896;2023-06-14T05:54:53;100388.81;;;20.68;55.51
46942;BME280;32676;52.630;4.896;2023-06-14T05:57:19;100408.94;;;20.73;54.48
46942;BME280;32676;52.630;4.896;2023-06-14T05:59:47;100424.72;;;20.76;54.16
46942;BME280;32676;52.630;4.896;2023-06-14T06:02:14;100470.09;;;20.87;54.29
46942;BME280;32676;52.630;4.896;2023-06-14T06:04:40;100507.56;;;20.97;54.38
46942;BME280;32676;52.630;4.896;2023-06-14T06:07:07;100543.38;;;21.05;53.72
46942;BME280;32676;52.630;4.896;2023-06-14T06:09:33;100546.06;;;21.05;53.10
46942;BME280;32676;52.630;4.896;2023-06-14T06:12:00;100573.25;;;21.11;53.27
46942;BME280;32676;52.630;4.896;2023-06-14T06:14:26;100605.53;;;21.19;53.37
46942;BME280;32676;52.630;4.896;2023-06-14T06:16:54;100637.00;;;21.26;52.89
46942;BME280;32676;52.630;4.896;2023-06-14T06:19:21;100658.75;;;21.33;52.77
46942;BME280;32676;52.630;4.896;2023-06-14T06:21:47;100704.44;;;21.41;52.27
46942;BME280;32676;52.630;4.896;2023-06-14T06:24:14;100702.47;;;21.43;52.46
46942;BME280;32676;52.630;4.896;2023-06-14T06:26:40;100736.03;;;21.47;52.38
46942;BME280;32676;52.630;4.896;2023-06-14T06:29:07;100754.41;;;21.52;51.79
46942;BME280;32676;52.630;4.896;2023-06-14T06:31:33;100796.34;;;21.63;52.36
46942;BME280;32676;52.630;4.896;2023-06-14T06:34:02;100816.75;;;21.64;52.40
46942;BME280;32676;52.630;4.896;2023-06-14T06:36:28;100830.59;;;21.69;51.94
46942;BME280;32676;52.630;4.896;2023-06-14T06:38:55;100842.03;;;21.71;51.25
46942;BME280;32676;52.630;4.896;2023-06-14T06:41:21;100863.81;;;21.78;51.23
46942;BME280;32676;52.630;4.896;2023-06-14T06:43:48;100904.03;;;21.88;51.22
46942;BME280;32676;52.630;4.896;2023-06-14T06:46:14;100905.75;;;21.89;51.67
46942;BME280;32676;52.630;4.896;2023-06-14T06:48:41;100944.44;;;21.96;51.82
46942;BME280;32676;52.630;4.896;2023-06-14T06:51:09;100946.13;;;21.97;51.64
46942;BME280;32676;52.630;4.896;2023-06-14T06:53:35;100977.78;;;22.03;51.46
46942;BME280;32676;52.630;4.896;2023-06-14T06:56:02;100995.28;;;22.07;51.74
46942;BME280;32676;52.630;4.896;2023-06-14T06:58:29;101017.94;;;22.14;51.26
46942;BME280;32676;52.630;4.896;2023-06-14T07:00:56;101026.91;;;22.13;51.30
46942;BME280;32676;52.630;4.896;2023-06-14T07:03:22;101046.16;;;22.18;51.30
46942;BME280;32676;52.630;4.896;2023-06-14T07:05:49;101044.44;;;22.17;50.89
46942;BME280;32676;52.630;4.896;2023-06-14T07:08:16;101065.41;;;22.23;50.85
46942;BME280;32676;52.630;4.896;2023-06-14T07:10:43;101116.31;;;22.35;50.92
46942;BME280;32676;52.630;4.896;2023-06-14T07:13:09;101119.72;;;22.37;51.25
46942;BME280;32676;52.630;4.896;2023-06-14T07:15:36;101161.84;;;22.46;51.10
46942;BME280;32676;52.630;4.896;2023-06-14T07:18:04;101198.88;;;22.52;51.86
46942;BME280;32676;52.630;4.896;2023-06-14T07:20:32;101224.34;;;22.58;51.40
46942;BME280;32676;52.630;4.896;2023-06-14T07:22:58;101273.22;;;22.73;51.21
46942;BME280;32676;52.630;4.896;2023-06-14T07:25:26;101324.25;;;22.83;50.71
46942;BME280;32676;52.630;4.896;2023-06-14T07:27:53;101322.44;;;22.83;50.17
46942;BME280;32676;52.630;4.896;2023-06-14T07:30:20;101353.16;;;22.90;50.15
46942;BME280;32676;52.630;4.896;2023-06-14T07:32:51;101390.22;;;22.96;49.56
46942;BME280;32676;52.630;4.896;2023-06-14T07:35:17;101400.47;;;23.03;49.70
46942;BME280;32676;52.630;4.896;2023-06-14T07:37:44;101411.00;;;23.06;49.25
46942;BME280;32676;52.630;4.896;2023-06-14T07:40:12;101474.41;;;23.18;49.01
46942;BME280;32676;52.630;4.896;2023-06-14T07:42:40;101518.31;;;23.28;49.47
46942;BME280;32676;52.630;4.896;2023-06-14T07:45:07;101551.53;;;23.38;49.68
46942;BME280;32676;52.630;4.896;2023-06-14T07:47:34;101579.84;;;23.43;49.50
46942;BME280;32676;52.630;4.896;2023-06-14T07:50:00;101607.91;;;23.50;49.86
46942;BME280;32676;52.630;4.896;2023-06-14T07:52:28;101660.66;;;23.62;49.93
46942;BME280;32676;52.630;4.896;2023-06-14T07:54:54;101678.03;;;23.69;48.68
46942;BME280;32676;52.630;4.896;2023-06-14T07:57:21;101691.22;;;23.72;48.04
46942;BME280;32676;52.630;4.896;2023-06-14T07:59:49;101734.47;;;23.81;48.21
46942;BME280;32676;52.630;4.896;2023-06-14T08:02:16;101756.47;;;23.86;48.10
46942;BME280;32676;52.630;4.896;2023-06-14T08:04:43;101790.69;;;23.95;47.41
46942;BME280;32676;52.630;4.896;2023-06-14T08:07:09;101814.53;;;24.00;47.14
46942;BME280;32676;52.630;4.896;2023-06-14T08:09:36;101846.06;;;24.09;47.67
46942;BME280;32676;52.630;4.896;2023-06-14T08:12:04;101924.56;;;24.25;47.37
46942;BME280;32676;52.630;4.896;2023-06-14T08:14:32;101977.25;;;24.39;47.33
46942;BME280;32676;52.630;4.896;2023-06-14T08:17:00;102014.19;;;24.48;46.32
46942;BME280;32676;52.630;4.896;2023-06-14T08:19:27;102054.88;;;24.57;46.45
46942;BME280;32676;52.630;4.896;2023-06-14T08:21:53;102082.16;;;24.63;46.16
46942;BME280;32676;52.630;4.896;2023-06-14T08:24:21;102061.72;;;24.61;46.27
46942;BME280;32676;52.630;4.896;2023-06-14T08:26:49;102071.41;;;24.63;46.51
46942;BME280;32676;52.630;4.896;2023-06-14T08:29:16;102091.81;;;24.66;46.47
46942;BME280;32676;52.630;4.896;2023-06-14T08:31:42;102140.19;;;24.79;45.89
46942;BME280;32676;52.630;4.896;2023-06-14T08:34:10;102131.28;;;24.78;45.68
46942;BME280;32676;52.630;4.896;2023-06-14T08:36:37;102134.81;;;24.79;45.47
46942;BME280;32676;52.630;4.896;2023-06-14T08:39:03;102132.22;;;24.77;45.07
46942;BME280;32676;52.630;4.896;2023-06-14T08:41:31;102140.84;;;24.82;44.83
46942;BME280;32676;52.630;4.896;2023-06-14T08:43:58;102153.09;;;24.86;45.33
46942;BME280;32676;52.630;4.896;2023-06-14T08:46:26;102172.44;;;24.91;44.92
46942;BME280;32676;52.630;4.896;2023-06-14T08:48:55;102210.41;;;25.00;44.68
46942;BME280;32676;52.630;4.896;2023-06-14T08:51:25;102229.88;;;25.03;44.25
46942;BME280;32676;52.630;4.896;2023-06-14T08:53:53;102221.69;;;25.05;44.66
46942;BME280;32676;52.630;4.896;2023-06-14T08:56:23;102273.84;;;25.15;44.27
46942;BME280;32676;52.630;4.896;2023-06-14T08:58:51;102292.06;;;25.24;43.50
46942;BME280;32676;52.630;4.896;2023-06-14T09:01:18;102341.56;;;25.35;43.04
46942;BME280;32676;52.630;4.896;2023-06-14T09:03:44;102392.81;;;25.46;43.51
46942;BME280;32676;52.630;4.896;2023-06-14T09:06:13;102431.56;;;25.56;42.71
46942;BME280;32676;52.630;4.896;2023-06-14T09:08:43;102472.25;;;25.64;42.58
46942;BME280;32676;52.630;4.896;2023-06-14T09:11:11;102422.75;;;25.54;41.35
46942;BME280;32676;52.630;4.896;2023-06-14T09:13:38;102424.44;;;25.55;41.22
46942;BME280;32676;52.630;4.896;2023-06-14T09:16:05;102422.50;;;25.57;42.00
46942;BME280;32676;52.630;4.896;2023-06-14T09:18:36;102412.84;;;25.55;42.13
46942;BME280;32676;52.630;4.896;2023-06-14T09:21:02;102415.41;;;25.56;41.29
46942;BME280;32676;52.630;4.896;2023-06-14T09:23:29;102433.81;;;25.62;41.08
46942;BME280;32676;52.630;4.896;2023-06-14T09:25:57;102447.94;;;25.66;41.00
46942;BME280;32676;52.630;4.896;2023-06-14T09:28:27;102449.53;;;25.68;40.71
46942;BME280;32676;52.630;4.896;2023-06-14T09:30:53;102472.69;;;25.71;40.90
46942;BME280;32676;52.630;4.896;2023-06-14T09:33:20;102508.91;;;25.80;40.69
46942;BME280;32676;52.630;4.896;2023-06-14T09:35:51;102518.38;;;25.85;39.53
46942;BME280;32676;52.630;4.896;2023-06-14T09:38:17;102538.63;;;25.91;39.53
46942;BME280;32676;52.630;4.896;2023-06-14T09:40:44;102568.59;;;25.99;40.09
46942;BME280;32676;52.630;4.896;2023-06-14T09:43:11;102564.19;;;25.98;39.34
46942;BME280;32676;52.630;4.896;2023-06-14T09:45:39;102558.81;;;25.98;39.28
46942;BME280;32676;52.630;4.896;2023-06-14T09:48:06;102541.88;;;25.96;38.82
46942;BME280;32676;52.630;4.896;2023-06-14T09:50:33;102543.59;;;25.97;37.92
46942;BME280;32676;52.630;4.896;2023-06-14T09:53:02;102540.81;;;25.99;38.68
46942;BME280;32676;52.630;4.896;2023-06-14T09:55:30;102516.91;;;25.94;37.66
46942;BME280;32676;52.630;4.896;2023-06-14T09:57:57;102511.50;;;25.94;38.31
46942;BME280;32676;52.630;4.896;2023-06-14T10:00:28;102538.84;;;26.01;38.79
46942;BME280;32676;52.630;4.896;2023-06-14T10:03:00;102551.25;;;26.03;37.74
46942;BME280;32676;52.630;4.896;2023-06-14T10:05:30;102560.09;;;26.05;37.11
46942;BME280;32676;52.630;4.896;2023-06-14T10:08:00;102566.88;;;26.11;36.36
46942;BME280;32676;52.630;4.896;2023-06-14T10:10:29;102566.78;;;26.13;35.57
46942;BME280;32676;52.630;4.896;2023-06-14T10:12:56;102541.00;;;26.09;36.13
46942;BME280;32676;52.630;4.896;2023-06-14T10:15:30;102564.84;;;26.15;35.93
46942;BME280;32676;52.630;4.896;2023-06-14T10:18:01;102581.53;;;26.20;36.03
46942;BME280;32676;52.630;4.896;2023-06-14T10:20:37;102600.06;;;26.24;36.75
46942;BME280;32676;52.630;4.896;2023-06-14T10:23:07;102609.78;;;26.27;36.77
46942;BME280;32676;52.630;4.896;2023-06-14T10:25:36;102566.13;;;26.22;36.49
46942;BME280;32676;52.630;4.896;2023-06-14T10:28:14;102522.91;;;26.11;36.78
46942;BME280;32676;52.630;4.896;2023-06-14T10:31:07;102503.28;;;26.09;37.51
46942;BME280;32676;52.630;4.896;2023-06-14T10:33:35;102501.56;;;26.08;37.66
46942;BME280;32676;52.630;4.896;2023-06-14T10:36:10;102501.56;;;26.08;37.48
46942;BME280;32676;52.630;4.896;2023-06-14T10:38:37;102502.41;;;26.08;37.87
46942;BME280;32676;52.630;4.896;2023-06-14T10:41:04;102519.34;;;26.10;38.56
46942;BME280;32676;52.630;4.896;2023-06-14T10:43:31;102558.78;;;26.24;38.27
46942;BME280;32676;52.630;4.896;2023-06-14T10:46:16;102540.13;;;26.21;38.12
46942;BME280;32676;52.630;4.896;2023-06-14T10:48:43;102531.50;;;26.16;37.91
46942;BME280;32676;52.630;4.896;2023-06-14T10:51:16;102543.56;;;26.23;38.66
46942;BME280;32676;52.630;4.896;2023-06-14T10:53:45;102576.13;;;26.33;38.41
46942;BME280;32676;52.630;4.896;2023-06-14T10:56:23;102601.78;;;26.38;38.80
46942;BME280;32676;52.630;4.896;2023-06-14T10:58:51;102620.31;;;26.43;37.97
46942;BME280;32676;52.630;4.896;2023-06-14T11:01:28;102599.09;;;26.38;37.52
46942;BME280;32676;52.630;4.896;2023-06-14T11:03:57;102578.72;;;26.34;38.68
46942;BME280;32676;52.630;4.896;2023-06-14T11:06:44;102586.66;;;26.36;38.72
46942;BME280;32676;52.630;4.896;2023-06-14T11:09:31;102636.06;;;26.49;38.98
46942;BME280;32676;52.630;4.896;2023-06-14T11:12:08;102647.50;;;26.53;38.32
46942;BME280;32676;52.630;4.896;2023-06-14T11:14:36;102643.06;;;26.52;37.87
46942;BME280;32676;52.630;4.896;2023-06-14T11:17:05;102645.53;;;26.55;37.52
46942;BME280;32676;52.630;4.896;2023-06-14T11:19:31;102653.44;;;26.58;37.02
46942;BME280;32676;52.630;4.896;2023-06-14T11:21:58;102675.53;;;26.63;36.71
46942;BME280;32676;52.630;4.896;2023-06-14T11:24:25;102681.56;;;26.67;36.80
46942;BME280;32676;52.630;4.896;2023-06-14T11:26:51;102690.44;;;26.69;37.05
46942;BME280;32676;52.630;4.896;2023-06-14T11:29:20;102714.16;;;26.76;38.40
46942;BME280;32676;52.630;4.896;2023-06-14T11:31:46;102712.44;;;26.75;38.07
46942;BME280;32676;52.630;4.896;2023-06-14T11:34:14;102712.44;;;26.75;37.68
46942;BME280;32676;52.630;4.896;2023-06-14T11:36:41;102702.50;;;26.76;36.32
46942;BME280;32676;52.630;4.896;2023-06-14T11:39:08;102738.75;;;26.85;36.90
46942;BME280;32676;52.630;4.896;2023-06-14T11:41:37;102745.66;;;26.89;36.73
46942;BME280;32676;52.630;4.896;2023-06-14T11:44:04;102763.34;;;26.93;36.22
46942;BME280;32676;52.630;4.896;2023-06-14T11:46:31;102756.22;;;26.92;36.63
46942;BME280;32676;52.630;4.896;2023-06-14T11:48:57;102765.94;;;26.94;35.73
46942;BME280;32676;52.630;4.896;2023-06-14T11:51:29;102733.13;;;26.88;34.79
46942;BME280;32676;52.630;4.896;2023-06-14T11:53:56;102685.25;;;26.78;34.74
46942;BME280;32676;52.630;4.896;2023-06-14T11:56:23;102652.44;;;26.72;35.30
46942;BME280;32676;52.630;4.896;2023-06-14T11:58:50;102628.53;;;26.67;35.36
46942;BME280;32676;52.630;4.896;2023-06-14T12:01:17;102645.34;;;26.71;36.14
46942;BME280;32676;52.630;4.896;2023-06-14T12:03:47;102635.50;;;26.70;35.90
46942;BME280;32676;52.630;4.896;2023-06-14T12:06:14;102637.13;;;26.72;35.91
46942;BME280;32676;52.630;4.896;2023-06-14T12:08:42;102659.13;;;26.79;36.12
46942;BME280;32676;52.630;4.896;2023-06-14T12:11:11;102683.09;;;26.84;36.59
46942;BME280;32676;52.630;4.896;2023-06-14T12:13:39;102728.03;;;26.96;36.77
46942;BME280;32676;52.630;4.896;2023-06-14T12:16:07;102754.59;;;27.02;36.02
46942;BME280;32676;52.630;4.896;2023-06-14T12:18:34;102771.31;;;27.07;36.11
46942;BME280;32676;52.630;4.896;2023-06-14T12:21:02;102796.16;;;27.12;35.82
46942;BME280;32676;52.630;4.896;2023-06-14T12:23:43;102764.19;;;27.06;35.06
46942;BME280;32676;52.630;4.896;2023-06-14T12:26:12;102779.97;;;27.12;35.98
46942;BME280;32676;52.630;4.896;2023-06-14T12:28:39;102817.09;;;27.22;35.87
46942;BME280;32676;52.630;4.896;2023-06-14T12:31:06;102826.88;;;27.23;36.13
46942;BME280;32676;52.630;4.896;2023-06-14T12:33:33;102837.41;;;27.27;35.01
46942;BME280;32676;52.630;4.896;2023-06-14T12:35:59;102792.91;;;27.20;34.13
46942;BME280;32676;52.630;4.896;2023-06-14T12:38:26;102765.69;;;27.10;34.71
46942;BME280;32676;52.630;4.896;2023-06-14T12:40:54;102733.53;;;27.07;35.24
46942;BME280;32676;52.630;4.896;2023-06-14T12:43:20;102742.38;;;27.09;35.41
46942;BME280;32676;52.630;4.896;2023-06-14T12:45:47;102737.84;;;27.10;35.45
46942;BME280;32676;52.630;4.896;2023-06-14T12:48:13;102745.84;;;27.11;35.45
46942;BME280;32676;52.630;4.896;2023-06-14T12:50:40;102743.88;;;27.13;35.32
46942;BME280;32676;52.630;4.896;2023-06-14T12:53:07;102743.03;;;27.13;34.88
46942;BME280;32676;52.630;4.896;2023-06-14T12:55:33;102731.38;;;27.12;34.52
46942;BME280;32676;52.630;4.896;2023-06-14T12:58:01;102712.91;;;27.06;33.98